METAR Data
IDs: Format: Raw Decoded Include TAF

Data at: 0115 UTC 01 Mar 2021

ZSHC 010100Z VRB01MPS 3500 BR BKN040 14/13 Q1017 NOSIG